Accueil
METAR-TAF:

METAR-TAF

Aéroports :

Soldotna, Alaska, États-Unis

latitude: 60-29N, longitude: 151-02W, altitude: 33 m

Observation

Le bulletin a été fait il y a 1 heure et 0 minutes, à 21:56 UTC
Vent calme
Température -6°C
Humidité 62%
Pression 1015 hPa
Visibilité: 16.1 km
Ciel clair

METAR: PASX 282156Z AUTO 00000KT 10SM CLR M06/M12 A2997 RMK AO2 SLP159 T10611117 FZRANO

Heure: 13:56 (22:56 UTC)


TAF: absent

Observations et prévisions météorologiques de plus de 4000 aéroports (messages METAR et TAF).

Les stations disponibles sont représentées par des disques jaunes et rouges sur la carte.

Passer la souris dessus pour voir le nom de la station.

Cliquer dessus pour voir les observations et prévisions météorologiques.

Pour changer de carte: cliquez sur les boutons verts avec une croix noire pour zoomer, sur le bouton vert avec un tiret pour effectuer un zoom arrière, ou sur les flèches vertes pour les cartes adjacentes.


METAR-TAF: